sensor_id;sensor_type;location;lat;lon;timestamp;P1;durP1;ratioP1;P2;durP2;ratioP2
21202;SDS011;10759;51.982;9.232;2023-05-16T15:13:39;4.03;;;1.08;;
21202;SDS011;10759;51.982;9.232;2023-05-16T15:16:07;4.72;;;1.25;;
21202;SDS011;10759;51.982;9.232;2023-05-16T15:18:35;6.13;;;1.00;;
21202;SDS011;10759;51.982;9.232;2023-05-16T15:21:03;4.18;;;1.20;;
21202;SDS011;10759;51.982;9.232;2023-05-16T15:23:31;2.67;;;1.20;;
21202;SDS011;10759;51.982;9.232;2023-05-16T15:25:59;2.45;;;1.20;;
21202;SDS011;10759;51.982;9.232;2023-05-16T15:28:27;5.07;;;2.00;;
21202;SDS011;10759;51.982;9.232;2023-05-16T15:30:56;3.53;;;1.40;;
21202;SDS011;10759;51.982;9.232;2023-05-16T15:33:24;7.13;;;1.50;;
21202;SDS011;10759;51.982;9.232;2023-05-16T15:35:52;3.20;;;1.40;;
21202;SDS011;10759;51.982;9.232;2023-05-16T15:38:20;3.90;;;1.13;;
21202;SDS011;10759;51.982;9.232;2023-05-16T15:40:48;3.05;;;1.23;;
21202;SDS011;10759;51.982;9.232;2023-05-16T15:43:26;1.73;;;0.90;;
21202;SDS011;10759;51.982;9.232;2023-05-16T15:45:54;2.47;;;0.90;;
21202;SDS011;10759;51.982;9.232;2023-05-16T15:48:23;2.47;;;1.15;;
21202;SDS011;10759;51.982;9.232;2023-05-16T15:50:51;2.47;;;1.00;;
21202;SDS011;10759;51.982;9.232;2023-05-16T15:53:19;6.97;;;1.15;;
21202;SDS011;10759;51.982;9.232;2023-05-16T15:55:47;2.28;;;1.15;;
21202;SDS011;10759;51.982;9.232;2023-05-16T15:58:16;2.47;;;1.08;;
21202;SDS011;10759;51.982;9.232;2023-05-16T16:00:47;2.92;;;1.13;;
21202;SDS011;10759;51.982;9.232;2023-05-16T16:03:15;2.85;;;1.40;;
21202;SDS011;10759;51.982;9.232;2023-05-16T16:05:44;1.77;;;1.05;;
21202;SDS011;10759;51.982;9.232;2023-05-16T16:08:13;3.95;;;1.48;;
21202;SDS011;10759;51.982;9.232;2023-05-16T16:10:41;5.47;;;1.35;;
21202;SDS011;10759;51.982;9.232;2023-05-16T16:13:09;4.85;;;1.45;;
21202;SDS011;10759;51.982;9.232;2023-05-16T16:15:37;6.90;;;1.30;;
21202;SDS011;10759;51.982;9.232;2023-05-16T16:18:07;6.90;;;1.38;;
21202;SDS011;10759;51.982;9.232;2023-05-16T16:20:37;3.28;;;1.15;;
21202;SDS011;10759;51.982;9.232;2023-05-16T16:23:06;3.53;;;1.25;;
21202;SDS011;10759;51.982;9.232;2023-05-16T16:25:34;3.80;;;1.58;;
21202;SDS011;10759;51.982;9.232;2023-05-16T16:28:02;2.33;;;1.35;;
21202;SDS011;10759;51.982;9.232;2023-05-16T16:30:31;4.18;;;1.95;;
21202;SDS011;10759;51.982;9.232;2023-05-16T16:32:58;4.60;;;1.40;;
21202;SDS011;10759;51.982;9.232;2023-05-16T16:35:27;3.60;;;1.25;;
21202;SDS011;10759;51.982;9.232;2023-05-16T16:37:55;4.45;;;1.13;;
21202;SDS011;10759;51.982;9.232;2023-05-16T16:40:33;5.18;;;1.30;;
21202;SDS011;10759;51.982;9.232;2023-05-16T16:43:01;4.40;;;1.20;;
21202;SDS011;10759;51.982;9.232;2023-05-16T16:45:31;3.85;;;1.15;;
21202;SDS011;10759;51.982;9.232;2023-05-16T16:47:59;4.57;;;1.33;;
21202;SDS011;10759;51.982;9.232;2023-05-16T16:50:27;4.00;;;1.13;;
21202;SDS011;10759;51.982;9.232;2023-05-16T16:52:57;3.92;;;1.63;;
21202;SDS011;10759;51.982;9.232;2023-05-16T16:55:27;5.65;;;1.52;;
21202;SDS011;10759;51.982;9.232;2023-05-16T16:57:56;3.13;;;1.40;;
21202;SDS011;10759;51.982;9.232;2023-05-16T17:00:24;3.30;;;1.08;;
21202;SDS011;10759;51.982;9.232;2023-05-16T17:02:52;2.63;;;1.27;;
21202;SDS011;10759;51.982;9.232;2023-05-16T17:05:20;2.25;;;1.42;;
21202;SDS011;10759;51.982;9.232;2023-05-16T17:07:48;5.22;;;1.40;;
21202;SDS011;10759;51.982;9.232;2023-05-16T17:10:17;4.97;;;1.45;;
21202;SDS011;10759;51.982;9.232;2023-05-16T17:12:46;6.85;;;1.83;;
21202;SDS011;10759;51.982;9.232;2023-05-16T17:15:16;3.70;;;1.40;;
21202;SDS011;10759;51.982;9.232;2023-05-16T17:17:44;4.82;;;1.63;;
21202;SDS011;10759;51.982;9.232;2023-05-16T17:20:14;3.03;;;1.15;;
21202;SDS011;10759;51.982;9.232;2023-05-16T17:22:42;2.75;;;1.30;;
21202;SDS011;10759;51.982;9.232;2023-05-16T17:25:11;3.15;;;1.40;;
21202;SDS011;10759;51.982;9.232;2023-05-16T17:27:39;4.38;;;1.40;;
21202;SDS011;10759;51.982;9.232;2023-05-16T17:30:07;5.55;;;1.60;;
21202;SDS011;10759;51.982;9.232;2023-05-16T17:32:37;3.83;;;1.65;;
21202;SDS011;10759;51.982;9.232;2023-05-16T17:35:06;5.82;;;1.20;;
21202;SDS011;10759;51.982;9.232;2023-05-16T17:37:34;2.83;;;1.40;;
21202;SDS011;10759;51.982;9.232;2023-05-16T17:40:02;3.53;;;1.40;;
21202;SDS011;10759;51.982;9.232;2023-05-16T17:42:31;6.55;;;1.60;;
21202;SDS011;10759;51.982;9.232;2023-05-16T17:44:59;5.25;;;1.40;;
21202;SDS011;10759;51.982;9.232;2023-05-16T17:47:29;2.92;;;1.27;;
21202;SDS011;10759;51.982;9.232;2023-05-16T17:49:58;4.90;;;1.48;;
21202;SDS011;10759;51.982;9.232;2023-05-16T17:52:27;5.23;;;1.67;;
21202;SDS011;10759;51.982;9.232;2023-05-16T17:54:54;8.50;;;2.25;;
21202;SDS011;10759;51.982;9.232;2023-05-16T17:57:23;4.45;;;1.65;;
21202;SDS011;10759;51.982;9.232;2023-05-16T17:59:51;7.10;;;1.83;;
21202;SDS011;10759;51.982;9.232;2023-05-16T18:02:19;4.53;;;1.65;;
21202;SDS011;10759;51.982;9.232;2023-05-16T18:04:47;3.88;;;1.63;;
21202;SDS011;10759;51.982;9.232;2023-05-16T18:07:16;4.18;;;1.38;;
21202;SDS011;10759;51.982;9.232;2023-05-16T18:09:44;3.67;;;1.67;;
21202;SDS011;10759;51.982;9.232;2023-05-16T18:12:12;4.55;;;1.73;;
21202;SDS011;10759;51.982;9.232;2023-05-16T18:14:40;6.20;;;2.10;;
21202;SDS011;10759;51.982;9.232;2023-05-16T18:19:38;3.85;;;1.60;;
21202;SDS011;10759;51.982;9.232;2023-05-16T18:22:06;5.18;;;1.65;;
21202;SDS011;10759;51.982;9.232;2023-05-16T18:24:38;5.82;;;2.15;;
21202;SDS011;10759;51.982;9.232;2023-05-16T18:27:06;3.88;;;1.77;;
21202;SDS011;10759;51.982;9.232;2023-05-16T18:29:34;4.32;;;2.40;;
21202;SDS011;10759;51.982;9.232;2023-05-16T18:32:02;8.00;;;3.53;;
21202;SDS011;10759;51.982;9.232;2023-05-16T18:34:30;6.93;;;3.30;;
21202;SDS011;10759;51.982;9.232;2023-05-16T18:36:59;5.53;;;2.67;;
21202;SDS011;10759;51.982;9.232;2023-05-16T18:39:27;3.47;;;2.00;;
21202;SDS011;10759;51.982;9.232;2023-05-16T18:44:26;7.60;;;2.05;;
21202;SDS011;10759;51.982;9.232;2023-05-16T18:46:54;5.68;;;2.63;;
21202;SDS011;10759;51.982;9.232;2023-05-16T18:49:24;5.27;;;2.27;;
21202;SDS011;10759;51.982;9.232;2023-05-16T18:51:52;4.63;;;2.53;;
21202;SDS011;10759;51.982;9.232;2023-05-16T18:54:19;5.70;;;2.67;;
21202;SDS011;10759;51.982;9.232;2023-05-16T18:56:49;5.00;;;2.75;;
21202;SDS011;10759;51.982;9.232;2023-05-16T18:59:19;4.60;;;3.13;;
21202;SDS011;10759;51.982;9.232;2023-05-16T19:01:46;4.65;;;3.05;;
21202;SDS011;10759;51.982;9.232;2023-05-16T19:04:14;6.72;;;3.30;;
21202;SDS011;10759;51.982;9.232;2023-05-16T19:06:42;7.03;;;3.88;;
21202;SDS011;10759;51.982;9.232;2023-05-16T19:09:11;4.53;;;3.20;;
21202;SDS011;10759;51.982;9.232;2023-05-16T19:11:39;11.20;;;5.63;;
21202;SDS011;10759;51.982;9.232;2023-05-16T19:14:07;7.03;;;3.55;;
21202;SDS011;10759;51.982;9.232;2023-05-16T19:16:36;6.15;;;3.80;;
21202;SDS011;10759;51.982;9.232;2023-05-16T19:19:04;7.32;;;3.80;;
21202;SDS011;10759;51.982;9.232;2023-05-16T19:21:33;6.40;;;4.07;;
21202;SDS011;10759;51.982;9.232;2023-05-16T19:24:01;6.88;;;3.85;;
21202;SDS011;10759;51.982;9.232;2023-05-16T19:26:29;7.03;;;3.65;;
21202;SDS011;10759;51.982;9.232;2023-05-16T19:28:57;4.15;;;3.42;;
21202;SDS011;10759;51.982;9.232;2023-05-16T19:31:25;4.35;;;3.70;;
21202;SDS011;10759;51.982;9.232;2023-05-16T19:33:54;8.15;;;3.92;;
21202;SDS011;10759;51.982;9.232;2023-05-16T19:36:22;4.00;;;3.40;;
21202;SDS011;10759;51.982;9.232;2023-05-16T19:38:50;6.55;;;3.95;;
21202;SDS011;10759;51.982;9.232;2023-05-16T19:41:18;5.32;;;3.60;;
21202;SDS011;10759;51.982;9.232;2023-05-16T19:43:46;7.82;;;4.15;;
21202;SDS011;10759;51.982;9.232;2023-05-16T19:46:14;7.95;;;4.32;;
21202;SDS011;10759;51.982;9.232;2023-05-16T19:48:42;6.00;;;3.85;;
21202;SDS011;10759;51.982;9.232;2023-05-16T19:51:11;7.00;;;4.68;;
21202;SDS011;10759;51.982;9.232;2023-05-16T19:53:39;6.30;;;3.55;;
21202;SDS011;10759;51.982;9.232;2023-05-16T19:56:08;8.40;;;3.72;;
21202;SDS011;10759;51.982;9.232;2023-05-16T19:58:36;14.85;;;8.65;;
21202;SDS011;10759;51.982;9.232;2023-05-16T20:01:04;9.00;;;4.72;;
21202;SDS011;10759;51.982;9.232;2023-05-16T20:03:32;5.32;;;4.15;;
21202;SDS011;10759;51.982;9.232;2023-05-16T20:06:00;7.68;;;4.47;;
21202;SDS011;10759;51.982;9.232;2023-05-16T20:08:30;6.57;;;4.53;;
21202;SDS011;10759;51.982;9.232;2023-05-16T20:10:58;7.03;;;4.03;;
21202;SDS011;10759;51.982;9.232;2023-05-16T20:13:26;8.65;;;4.18;;
21202;SDS011;10759;51.982;9.232;2023-05-16T20:15:55;7.20;;;4.10;;
21202;SDS011;10759;51.982;9.232;2023-05-16T20:18:24;6.43;;;4.10;;
21202;SDS011;10759;51.982;9.232;2023-05-16T20:20:52;7.95;;;4.60;;
21202;SDS011;10759;51.982;9.232;2023-05-16T20:23:24;5.80;;;4.90;;
21202;SDS011;10759;51.982;9.232;2023-05-16T20:25:53;7.78;;;4.75;;
21202;SDS011;10759;51.982;9.232;2023-05-16T20:28:21;5.75;;;3.78;;
21202;SDS011;10759;51.982;9.232;2023-05-16T20:30:49;6.55;;;4.30;;
21202;SDS011;10759;51.982;9.232;2023-05-16T20:33:17;5.85;;;4.13;;
21202;SDS011;10759;51.982;9.232;2023-05-16T20:35:45;8.10;;;4.50;;
21202;SDS011;10759;51.982;9.232;2023-05-16T20:38:13;6.82;;;4.03;;
21202;SDS011;10759;51.982;9.232;2023-05-16T20:40:41;6.40;;;4.15;;
21202;SDS011;10759;51.982;9.232;2023-05-16T20:43:11;5.68;;;4.18;;
21202;SDS011;10759;51.982;9.232;2023-05-16T20:45:39;7.70;;;4.10;;
21202;SDS011;10759;51.982;9.232;2023-05-16T20:48:07;8.93;;;4.38;;
21202;SDS011;10759;51.982;9.232;2023-05-16T20:50:34;5.32;;;4.07;;
21202;SDS011;10759;51.982;9.232;2023-05-16T20:53:04;5.50;;;3.95;;
21202;SDS011;10759;51.982;9.232;2023-05-16T20:55:32;7.80;;;4.43;;
21202;SDS011;10759;51.982;9.232;2023-05-16T20:58:00;5.97;;;4.40;;
21202;SDS011;10759;51.982;9.232;2023-05-16T21:00:29;5.75;;;4.70;;
21202;SDS011;10759;51.982;9.232;2023-05-16T21:02:58;6.32;;;4.22;;
21202;SDS011;10759;51.982;9.232;2023-05-16T21:05:27;5.78;;;3.88;;
21202;SDS011;10759;51.982;9.232;2023-05-16T21:07:55;5.88;;;3.55;;
21202;SDS011;10759;51.982;9.232;2023-05-16T21:10:23;5.10;;;3.95;;
21202;SDS011;10759;51.982;9.232;2023-05-16T21:12:50;8.20;;;4.57;;
21202;SDS011;10759;51.982;9.232;2023-05-16T21:15:18;5.15;;;3.72;;
21202;SDS011;10759;51.982;9.232;2023-05-16T21:17:50;6.95;;;3.85;;
21202;SDS011;10759;51.982;9.232;2023-05-16T21:20:19;4.87;;;3.50;;
21202;SDS011;10759;51.982;9.232;2023-05-16T21:22:47;5.30;;;3.72;;
21202;SDS011;10759;51.982;9.232;2023-05-16T21:25:15;5.00;;;3.58;;
21202;SDS011;10759;51.982;9.232;2023-05-16T21:27:43;6.03;;;3.33;;
21202;SDS011;10759;51.982;9.232;2023-05-16T21:30:11;6.22;;;3.53;;
21202;SDS011;10759;51.982;9.232;2023-05-16T21:32:40;5.60;;;3.40;;
21202;SDS011;10759;51.982;9.232;2023-05-16T21:35:09;7.88;;;3.63;;
21202;SDS011;10759;51.982;9.232;2023-05-16T21:37:37;5.82;;;3.50;;
21202;SDS011;10759;51.982;9.232;2023-05-16T21:40:05;8.00;;;4.30;;
21202;SDS011;10759;51.982;9.232;2023-05-16T21:42:35;4.53;;;3.10;;
21202;SDS011;10759;51.982;9.232;2023-05-16T21:45:03;5.47;;;3.15;;
21202;SDS011;10759;51.982;9.232;2023-05-16T21:47:37;4.63;;;3.03;;
21202;SDS011;10759;51.982;9.232;2023-05-16T21:50:06;4.90;;;3.25;;
21202;SDS011;10759;51.982;9.232;2023-05-16T21:52:36;4.07;;;3.25;;
21202;SDS011;10759;51.982;9.232;2023-05-16T21:55:04;5.50;;;3.42;;
21202;SDS011;10759;51.982;9.232;2023-05-16T21:57:33;2.85;;;2.60;;
21202;SDS011;10759;51.982;9.232;2023-05-16T22:00:01;5.35;;;3.10;;
21202;SDS011;10759;51.982;9.232;2023-05-16T22:02:33;8.00;;;3.25;;
21202;SDS011;10759;51.982;9.232;2023-05-16T22:05:01;7.32;;;3.13;;
21202;SDS011;10759;51.982;9.232;2023-05-16T22:07:30;3.22;;;2.70;;
21202;SDS011;10759;51.982;9.232;2023-05-16T22:09:59;5.05;;;2.63;;
21202;SDS011;10759;51.982;9.232;2023-05-16T22:12:27;6.80;;;2.38;;
21202;SDS011;10759;51.982;9.232;2023-05-16T22:14:55;4.00;;;2.38;;
21202;SDS011;10759;51.982;9.232;2023-05-16T22:17:23;5.32;;;2.65;;
21202;SDS011;10759;51.982;9.232;2023-05-16T22:19:51;4.30;;;2.72;;
21202;SDS011;10759;51.982;9.232;2023-05-16T22:22:19;3.53;;;2.88;;
21202;SDS011;10759;51.982;9.232;2023-05-16T22:24:47;6.13;;;2.53;;
21202;SDS011;10759;51.982;9.232;2023-05-16T22:27:16;7.82;;;2.67;;
21202;SDS011;10759;51.982;9.232;2023-05-16T22:29:44;3.67;;;2.33;;
21202;SDS011;10759;51.982;9.232;2023-05-16T22:32:12;5.28;;;2.15;;
21202;SDS011;10759;51.982;9.232;2023-05-16T22:34:40;7.97;;;2.65;;
21202;SDS011;10759;51.982;9.232;2023-05-16T22:37:08;4.78;;;2.58;;
21202;SDS011;10759;51.982;9.232;2023-05-16T22:39:36;3.92;;;2.40;;
21202;SDS011;10759;51.982;9.232;2023-05-16T22:42:04;4.43;;;2.47;;
21202;SDS011;10759;51.982;9.232;2023-05-16T22:44:34;5.30;;;2.58;;
21202;SDS011;10759;51.982;9.232;2023-05-16T22:47:01;3.55;;;2.63;;
21202;SDS011;10759;51.982;9.232;2023-05-16T22:49:29;4.57;;;2.67;;
21202;SDS011;10759;51.982;9.232;2023-05-16T22:51:57;4.05;;;2.92;;
21202;SDS011;10759;51.982;9.232;2023-05-16T22:54:25;5.88;;;2.25;;
21202;SDS011;10759;51.982;9.232;2023-05-16T22:56:53;4.78;;;2.33;;
21202;SDS011;10759;51.982;9.232;2023-05-16T22:59:21;5.65;;;2.45;;
21202;SDS011;10759;51.982;9.232;2023-05-16T23:01:50;5.22;;;2.92;;
21202;SDS011;10759;51.982;9.232;2023-05-16T23:04:18;3.45;;;2.00;;
21202;SDS011;10759;51.982;9.232;2023-05-16T23:06:46;4.28;;;2.60;;
21202;SDS011;10759;51.982;9.232;2023-05-16T23:09:14;6.18;;;2.15;;
21202;SDS011;10759;51.982;9.232;2023-05-16T23:11:42;3.53;;;2.05;;
21202;SDS011;10759;51.982;9.232;2023-05-16T23:14:09;6.32;;;2.40;;
21202;SDS011;10759;51.982;9.232;2023-05-16T23:16:37;3.92;;;2.65;;
21202;SDS011;10759;51.982;9.232;2023-05-16T23:19:06;5.43;;;2.80;;
21202;SDS011;10759;51.982;9.232;2023-05-16T23:21:35;4.72;;;2.50;;
21202;SDS011;10759;51.982;9.232;2023-05-16T23:24:03;5.80;;;2.58;;
21202;SDS011;10759;51.982;9.232;2023-05-16T23:26:31;6.00;;;2.70;;
21202;SDS011;10759;51.982;9.232;2023-05-16T23:28:59;3.42;;;2.40;;
21202;SDS011;10759;51.982;9.232;2023-05-16T23:31:27;4.50;;;2.55;;
21202;SDS011;10759;51.982;9.232;2023-05-16T23:33:55;5.03;;;2.40;;
21202;SDS011;10759;51.982;9.232;2023-05-16T23:36:24;5.70;;;2.78;;
21202;SDS011;10759;51.982;9.232;2023-05-16T23:38:52;7.18;;;2.70;;
21202;SDS011;10759;51.982;9.232;2023-05-16T23:41:20;6.10;;;2.53;;
21202;SDS011;10759;51.982;9.232;2023-05-16T23:43:48;5.60;;;2.47;;
21202;SDS011;10759;51.982;9.232;2023-05-16T23:46:16;5.40;;;2.30;;
21202;SDS011;10759;51.982;9.232;2023-05-16T23:48:43;4.85;;;3.05;;
21202;SDS011;10759;51.982;9.232;2023-05-16T23:51:12;4.88;;;2.42;;
21202;SDS011;10759;51.982;9.232;2023-05-16T23:53:41;4.10;;;2.80;;
21202;SDS011;10759;51.982;9.232;2023-05-16T23:56:09;6.97;;;2.55;;
21202;SDS011;10759;51.982;9.232;2023-05-16T23:58:37;4.50;;;2.78;;
